createdAt,value
2022-10-25T00:00:23.900Z,97399.03
2022-10-25T00:02:26.522Z,97392.25
2022-10-25T00:04:29.107Z,97386.28
2022-10-25T00:06:31.729Z,97382.91
2022-10-25T00:08:34.265Z,97388.84
2022-10-25T00:10:37.640Z,97390.81
2022-10-25T00:12:44.111Z,97399.44
2022-10-25T00:14:46.716Z,97392.44
2022-10-25T00:16:50.703Z,97395.81
2022-10-25T00:18:53.641Z,97392.44
2022-10-25T00:20:56.289Z,97393.00
2022-10-25T00:22:58.917Z,97374.69
2022-10-25T00:25:01.604Z,97381.72
2022-10-25T00:27:04.225Z,97378.44
2022-10-25T00:29:06.986Z,97377.00
2022-10-25T00:31:11.915Z,97381.19
2022-10-25T00:33:15.838Z,97378.25
2022-10-25T00:35:18.489Z,97379.06
2022-10-25T00:37:21.056Z,97380.81
2022-10-25T00:39:23.659Z,97383.28
2022-10-25T00:41:29.183Z,97378.84
2022-10-25T00:43:33.933Z,97384.72
2022-10-25T00:45:36.738Z,97384.47
2022-10-25T00:47:47.680Z,97382.53
2022-10-25T00:50:01.842Z,97392.03
2022-10-25T00:52:07.767Z,97383.97
2022-10-25T00:54:13.942Z,97396.41
2022-10-25T00:56:23.752Z,97397.47
2022-10-25T00:58:29.809Z,97387.84
2022-10-25T01:00:32.707Z,97384.44
2022-10-25T01:02:36.045Z,97390.63
2022-10-25T01:04:38.823Z,97391.88
2022-10-25T01:06:46.530Z,97386.91
2022-10-25T01:08:51.070Z,97379.50
2022-10-25T01:10:53.656Z,97384.38
2022-10-25T01:12:56.951Z,97392.22
2022-10-25T01:14:59.760Z,97374.84
2022-10-25T01:17:10.729Z,97383.34
2022-10-25T01:21:48.940Z,97395.88
2022-10-25T01:24:32.124Z,97389.34
2022-10-25T01:26:53.296Z,97383.72
2022-10-25T01:29:15.846Z,97379.28
2022-10-25T01:31:28.411Z,97376.63
2022-10-25T01:33:35.814Z,97378.38
2022-10-25T01:35:46.407Z,97382.72
2022-10-25T01:38:03.258Z,97386.19
2022-10-25T01:40:11.509Z,97381.69
2022-10-25T01:42:23.522Z,97378.34
2022-10-25T01:44:38.015Z,97380.56
2022-10-25T01:46:46.807Z,97370.31
2022-10-25T01:48:54.699Z,97379.81
2022-10-25T01:51:06.232Z,97382.19
2022-10-25T01:53:08.816Z,97388.66
2022-10-25T01:55:14.969Z,97382.19
2022-10-25T01:57:42.747Z,97386.34
2022-10-25T02:00:07.118Z,97388.25
2022-10-25T02:02:16.296Z,97387.47
2022-10-25T02:04:31.677Z,97393.84
2022-10-25T02:06:44.195Z,97392.84
2022-10-25T02:08:51.887Z,97393.81
2022-10-25T02:11:02.376Z,97390.56
2022-10-25T02:13:16.924Z,97396.50
2022-10-25T02:15:25.706Z,97395.31
2022-10-25T02:17:29.670Z,97394.41
2022-10-25T02:19:34.841Z,97394.22
2022-10-25T02:21:38.559Z,97392.72
2022-10-25T02:23:42.315Z,97386.63
2022-10-25T02:25:46.335Z,97391.06
2022-10-25T02:27:51.326Z,97394.47
2022-10-25T02:29:55.684Z,97386.91
2022-10-25T02:31:58.480Z,97393.00
2022-10-25T02:34:02.593Z,97394.97
2022-10-25T02:36:13.326Z,97400.91
2022-10-25T02:38:16.012Z,97398.97
2022-10-25T02:40:18.809Z,97402.44
2022-10-25T02:42:21.414Z,97386.25
2022-10-25T02:44:24.055Z,97382.69
2022-10-25T02:46:26.852Z,97381.25
2022-10-25T02:48:29.435Z,97379.50
2022-10-25T02:50:33.331Z,97372.75
2022-10-25T02:52:35.925Z,97374.69
2022-10-25T02:54:38.541Z,97372.22
2022-10-25T02:56:41.116Z,97371.50
2022-10-25T02:58:45.382Z,97372.44
2022-10-25T03:00:49.512Z,97368.09
2022-10-25T03:02:52.137Z,97372.34
2022-10-25T03:04:54.758Z,97370.75
2022-10-25T03:06:59.054Z,97370.91
2022-10-25T03:09:01.615Z,97375.13
2022-10-25T03:11:05.497Z,97372.59
2022-10-25T03:13:08.124Z,97369.53
2022-10-25T03:15:11.432Z,97373.63
2022-10-25T03:17:13.979Z,97374.41
2022-10-25T03:19:16.539Z,97375.28
2022-10-25T03:21:19.121Z,97380.00
2022-10-25T03:23:23.058Z,97374.03
2022-10-25T03:25:25.737Z,97377.69
2022-10-25T03:27:28.330Z,97373.44
2022-10-25T03:29:30.880Z,97374.41
2022-10-25T03:31:33.497Z,97371.97
2022-10-25T03:33:36.132Z,97384.19
2022-10-25T03:35:38.823Z,97380.78
2022-10-25T03:37:41.396Z,97374.75
2022-10-25T03:39:45.393Z,97377.50
2022-10-25T03:41:47.995Z,97383.66
2022-10-25T03:43:50.685Z,97382.06
2022-10-25T03:45:53.381Z,97385.81
2022-10-25T03:47:55.975Z,97387.59
2022-10-25T03:49:58.618Z,97394.44
2022-10-25T03:52:02.755Z,97390.19
2022-10-25T03:54:07.567Z,97398.03
2022-10-25T03:56:11.551Z,97395.41
2022-10-25T03:58:14.155Z,97398.19
2022-10-25T04:00:16.905Z,97399.78
2022-10-25T04:02:19.583Z,97398.75
2022-10-25T04:04:22.271Z,97400.38
2022-10-25T04:06:24.920Z,97402.06
2022-10-25T04:08:27.515Z,97407.19
2022-10-25T04:10:32.611Z,97403.66
2022-10-25T04:12:36.532Z,97406.88
2022-10-25T04:14:39.412Z,97413.03
2022-10-25T04:16:42.111Z,97413.09
2022-10-25T04:18:44.772Z,97403.66
2022-10-25T04:20:47.365Z,97408.16
2022-10-25T04:22:54.629Z,97414.22
2022-10-25T04:24:57.244Z,97414.53
2022-10-25T04:26:59.799Z,97415.44
2022-10-25T04:29:04.925Z,97414.56
2022-10-25T04:31:07.487Z,97412.78
2022-10-25T04:33:10.070Z,97412.09
2022-10-25T04:35:13.684Z,97421.75
2022-10-25T04:37:16.368Z,97413.16
2022-10-25T04:39:18.980Z,97416.63
2022-10-25T04:41:22.487Z,97412.31
2022-10-25T04:43:29.360Z,97408.00
2022-10-25T04:45:33.267Z,97405.41
2022-10-25T04:47:35.904Z,97406.53
2022-10-25T04:49:38.488Z,97401.25
2022-10-25T04:51:41.612Z,97407.41
2022-10-25T04:53:44.293Z,97411.75
2022-10-25T04:55:56.688Z,97412.78
2022-10-25T04:57:59.298Z,97410.84
2022-10-25T05:00:02.049Z,97404.00
2022-10-25T05:02:06.267Z,97407.34
2022-10-25T05:04:08.865Z,97404.84
2022-10-25T05:06:14.293Z,97410.91
2022-10-25T05:08:16.892Z,97406.53
2022-10-25T05:10:19.548Z,97414.38
2022-10-25T05:12:24.424Z,97410.00
2022-10-25T05:14:26.968Z,97409.81
2022-10-25T05:16:29.645Z,97413.09
2022-10-25T05:18:35.250Z,97398.38
2022-10-25T05:20:37.842Z,97408.88
2022-10-25T05:22:40.446Z,97407.41
2022-10-25T05:24:42.981Z,97410.00
2022-10-25T05:26:45.557Z,97412.78
2022-10-25T05:28:49.924Z,97412.03
2022-10-25T05:30:52.492Z,97406.13
2022-10-25T05:32:55.059Z,97413.81
2022-10-25T05:34:59.010Z,97414.03
2022-10-25T05:37:01.688Z,97419.84
2022-10-25T05:39:04.437Z,97414.69
2022-10-25T05:41:07.950Z,97419.97
2022-10-25T05:43:10.542Z,97424.41
2022-10-25T05:45:13.117Z,97429.56
2022-10-25T05:47:15.774Z,97430.41
2022-10-25T05:49:18.598Z,97432.34
2022-10-25T05:51:34.654Z,97435.75
2022-10-25T05:53:38.281Z,97446.31
2022-10-25T05:55:40.842Z,97446.25
2022-10-25T05:57:43.391Z,97449.13
2022-10-25T05:59:48.730Z,97444.75
2022-10-25T06:01:51.672Z,97450.88
2022-10-25T06:03:56.374Z,97447.56
2022-10-25T06:06:02.062Z,97453.88
2022-10-25T06:08:06.119Z,97458.19
2022-10-25T06:10:10.757Z,97454.78
2022-10-25T06:12:13.509Z,97447.88
2022-10-25T06:14:16.069Z,97447.00
2022-10-25T06:16:20.196Z,97457.63
2022-10-25T06:18:22.802Z,97456.69
2022-10-25T06:20:25.358Z,97452.28
2022-10-25T06:22:27.953Z,97453.13
2022-10-25T06:24:31.860Z,97460.91
2022-10-25T06:26:34.467Z,97453.88
2022-10-25T06:28:37.798Z,97459.94
2022-10-25T06:30:40.420Z,97460.69
2022-10-25T06:32:42.989Z,97459.94
2022-10-25T06:34:45.572Z,97461.72
2022-10-25T06:36:48.120Z,97457.97
2022-10-25T06:38:51.587Z,97459.00
2022-10-25T06:40:59.656Z,97464.16
2022-10-25T06:43:02.221Z,97473.50
2022-10-25T06:45:05.460Z,97479.63
2022-10-25T06:47:23.412Z,97469.94
2022-10-25T06:49:29.137Z,97467.22
2022-10-25T06:51:32.660Z,97472.34
2022-10-25T06:53:35.236Z,97487.06
2022-10-25T06:55:37.828Z,97483.41
2022-10-25T06:57:41.795Z,97485.81
2022-10-25T06:59:45.894Z,97485.69
2022-10-25T07:01:49.980Z,97494.25
2022-10-25T07:03:53.828Z,97494.06
2022-10-25T07:05:56.490Z,97493.00
2022-10-25T07:07:59.063Z,97497.16
2022-10-25T07:10:01.998Z,97502.13
2022-10-25T07:12:08.730Z,97502.06
2022-10-25T07:14:15.498Z,97503.06
2022-10-25T07:16:20.828Z,97502.88
2022-10-25T07:18:23.419Z,97500.06
2022-10-25T07:20:26.062Z,97502.66
2022-10-25T07:22:29.450Z,97496.44
2022-10-25T07:24:32.247Z,97507.81
2022-10-25T07:26:35.801Z,97505.03
2022-10-25T07:28:38.745Z,97508.38
2022-10-25T07:30:47.264Z,97504.75
2022-10-25T07:32:49.920Z,97507.56
2022-10-25T07:34:52.631Z,97516.16
2022-10-25T07:36:55.214Z,97528.81
2022-10-25T07:38:58.206Z,97522.66
2022-10-25T07:41:01.189Z,97528.59
2022-10-25T07:43:06.396Z,97525.84
2022-10-25T07:45:09.922Z,97528.28
2022-10-25T07:47:13.864Z,97529.81
2022-10-25T07:49:16.638Z,97524.31
2022-10-25T07:51:20.415Z,97525.84
2022-10-25T07:53:23.202Z,97528.41
2022-10-25T07:55:25.798Z,97535.28
2022-10-25T07:57:28.392Z,97531.88
2022-10-25T07:59:31.320Z,97530.91
2022-10-25T08:01:33.959Z,97536.06
2022-10-25T08:03:38.349Z,97534.19
2022-10-25T08:05:41.020Z,97543.66
2022-10-25T08:07:43.577Z,97540.06
2022-10-25T08:09:46.219Z,97537.38
2022-10-25T08:11:48.862Z,97534.63
2022-10-25T08:13:51.795Z,97532.03
2022-10-25T08:15:55.744Z,97531.91
2022-10-25T08:17:59.939Z,97528.31
2022-10-25T08:20:04.000Z,97529.91
2022-10-25T08:22:06.548Z,97528.00
2022-10-25T08:24:09.432Z,97530.69
2022-10-25T08:26:12.812Z,97528.00
2022-10-25T08:28:15.423Z,97520.03
2022-10-25T08:30:18.601Z,97522.53
2022-10-25T08:32:21.178Z,97506.84
2022-10-25T08:34:23.759Z,97518.00
2022-10-25T08:36:28.078Z,97517.88
2022-10-25T08:38:30.907Z,97510.81
2022-10-25T08:40:46.352Z,97514.16
2022-10-25T08:43:02.142Z,97507.03
2022-10-25T08:45:12.059Z,97510.38
2022-10-25T08:47:21.745Z,97518.09
2022-10-25T08:49:30.878Z,97515.38
2022-10-25T08:51:38.471Z,97513.47
2022-10-25T08:53:48.826Z,97520.19
2022-10-25T08:56:05.416Z,97530.41
2022-10-25T08:58:19.443Z,97522.34
2022-10-25T09:00:23.949Z,97525.69
2022-10-25T09:02:38.126Z,97521.25
2022-10-25T09:04:40.700Z,97527.28
2022-10-25T09:06:52.751Z,97523.59
2022-10-25T09:09:06.338Z,97527.78
2022-10-25T09:11:19.253Z,97531.13
2022-10-25T09:15:46.584Z,97532.69
2022-10-25T09:17:51.539Z,97531.69
2022-10-25T09:20:04.771Z,97534.19
2022-10-25T09:22:15.795Z,97532.41
2022-10-25T09:24:23.868Z,97534.13
2022-10-25T09:26:40.139Z,97541.91
2022-10-25T09:28:52.461Z,97533.13
2022-10-25T09:30:59.496Z,97532.22
2022-10-25T09:33:06.860Z,97535.59
2022-10-25T09:35:16.487Z,97535.59
2022-10-25T09:37:26.491Z,97536.38
2022-10-25T09:39:38.351Z,97532.88
2022-10-25T09:41:43.419Z,97533.75
2022-10-25T09:43:50.133Z,97532.78
2022-10-25T09:45:56.561Z,97537.03
2022-10-25T09:48:07.420Z,97526.22
2022-10-25T09:50:17.331Z,97532.31
2022-10-25T09:52:29.072Z,97527.88
2022-10-25T09:54:36.391Z,97523.38
2022-10-25T09:56:40.521Z,97524.16
2022-10-25T09:58:45.707Z,97533.75
2022-10-25T10:00:48.734Z,97527.50
2022-10-25T10:02:51.536Z,97529.22
2022-10-25T10:04:55.338Z,97531.75
2022-10-25T10:07:03.491Z,97530.63
2022-10-25T10:09:11.454Z,97524.56
2022-10-25T10:11:18.230Z,97526.19
2022-10-25T10:13:28.936Z,97526.97
2022-10-25T10:15:36.499Z,97531.72
2022-10-25T10:17:39.101Z,97530.78
2022-10-25T10:19:43.978Z,97524.97
2022-10-25T10:21:48.724Z,97534.13
2022-10-25T10:23:54.610Z,97526.88
2022-10-25T10:26:02.662Z,97518.31
2022-10-25T10:28:05.472Z,97520.88
2022-10-25T10:30:09.751Z,97527.66
2022-10-25T10:32:26.863Z,97524.19
2022-10-25T10:34:32.270Z,97517.09
2022-10-25T10:36:36.320Z,97512.78
2022-10-25T10:38:38.965Z,97518.94
2022-10-25T10:40:42.214Z,97511.09
2022-10-25T10:42:46.508Z,97509.25
2022-10-25T10:45:15.380Z,97514.41
2022-10-25T10:47:22.067Z,97509.94
2022-10-25T10:49:37.009Z,97504.47
2022-10-25T10:51:45.299Z,97499.78
2022-10-25T10:53:48.375Z,97503.16
2022-10-25T10:55:53.370Z,97503.16
2022-10-25T10:58:02.729Z,97502.19
2022-10-25T11:00:06.273Z,97496.00
2022-10-25T11:02:24.891Z,97491.47
2022-10-25T11:04:27.618Z,97494.09
2022-10-25T11:06:32.965Z,97490.41
2022-10-25T11:08:35.662Z,97497.50
2022-10-25T11:10:38.837Z,97492.53
2022-10-25T11:12:41.691Z,97489.09
2022-10-25T11:14:45.860Z,97480.34
2022-10-25T11:16:57.378Z,97482.13
2022-10-25T11:19:19.121Z,97482.97
2022-10-25T11:21:49.352Z,97477.34
2022-10-25T11:24:04.573Z,97475.34
2022-10-25T11:26:17.934Z,97481.28
2022-10-25T11:28:35.550Z,97482.34
2022-10-25T11:30:46.557Z,97477.97
2022-10-25T11:33:14.526Z,97476.03
2022-10-25T11:35:34.127Z,97480.94
2022-10-25T11:37:43.408Z,97475.13
2022-10-25T11:39:54.717Z,97475.22
2022-10-25T11:42:06.053Z,97470.06
2022-10-25T11:44:54.854Z,97481.19
2022-10-25T11:47:10.444Z,97472.22
2022-10-25T11:49:31.584Z,97473.13
2022-10-25T11:51:44.771Z,97482.03
2022-10-25T11:54:08.794Z,97473.41
2022-10-25T11:56:19.919Z,97472.66
2022-10-25T11:58:37.152Z,97461.88
2022-10-25T12:00:51.883Z,97465.88
2022-10-25T12:03:08.958Z,97461.47
2022-10-25T12:05:25.071Z,97474.25
2022-10-25T12:07:34.185Z,97460.59
2022-10-25T12:09:43.867Z,97456.03
2022-10-25T12:11:50.829Z,97455.63
2022-10-25T12:13:58.973Z,97458.66
2022-10-25T12:16:04.632Z,97461.09
2022-10-25T12:18:15.528Z,97449.44
2022-10-25T12:20:24.514Z,97443.69
2022-10-25T12:22:29.800Z,97454.03
2022-10-25T12:24:42.823Z,97451.41
2022-10-25T12:26:46.815Z,97442.31
2022-10-25T12:28:50.855Z,97441.47
2022-10-25T12:30:58.857Z,97439.94
2022-10-25T12:33:10.983Z,97433.94
2022-10-25T12:35:22.884Z,97434.00
2022-10-25T12:37:32.238Z,97440.06
2022-10-25T12:39:39.844Z,97434.81
2022-10-25T12:41:48.235Z,97439.69
2022-10-25T12:44:08.371Z,97432.53
2022-10-25T12:46:35.685Z,97446.78
2022-10-25T12:49:00.859Z,97434.56
2022-10-25T12:51:22.679Z,97434.69
2022-10-25T12:53:59.409Z,97440.78
2022-10-25T12:56:05.319Z,97437.84
2022-10-25T12:58:23.605Z,97432.22
2022-10-25T13:00:28.993Z,97429.03
2022-10-25T13:02:50.136Z,97426.78
2022-10-25T13:05:17.353Z,97428.00
2022-10-25T13:07:23.736Z,97427.81
2022-10-25T13:09:32.028Z,97428.78
2022-10-25T13:11:38.283Z,97433.44
2022-10-25T13:13:49.926Z,97427.06
2022-10-25T13:15:56.204Z,97427.63
2022-10-25T13:18:03.606Z,97421.53
2022-10-25T13:20:45.069Z,97426.97
2022-10-25T13:22:49.718Z,97430.91
2022-10-25T13:24:52.453Z,97424.16
2022-10-25T13:27:24.827Z,97430.81
2022-10-25T13:32:22.043Z,97421.53
2022-10-25T13:34:36.508Z,97422.44
2022-10-25T13:36:48.232Z,97420.66
2022-10-25T13:39:04.001Z,97419.16
2022-10-25T13:41:16.088Z,97430.25
2022-10-25T13:43:21.335Z,97422.66
2022-10-25T13:45:33.555Z,97419.44
2022-10-25T13:47:40.803Z,97411.31
2022-10-25T13:49:44.572Z,97412.16
2022-10-25T13:51:47.910Z,97416.53
2022-10-25T13:53:54.104Z,97418.91
2022-10-25T13:56:06.149Z,97414.44
2022-10-25T13:58:41.296Z,97410.69
2022-10-25T14:00:47.973Z,97412.31
2022-10-25T14:03:04.553Z,97409.38
2022-10-25T14:05:11.286Z,97408.53
2022-10-25T14:07:49.263Z,97408.63
2022-10-25T14:09:54.210Z,97406.41
2022-10-25T14:12:11.959Z,97398.81
2022-10-25T14:14:24.213Z,97401.50
2022-10-25T14:16:30.524Z,97392.16
2022-10-25T14:18:37.080Z,97398.28
2022-10-25T14:20:40.266Z,97393.41
2022-10-25T14:22:44.223Z,97391.22
2022-10-25T14:24:51.050Z,97386.53
2022-10-25T14:26:56.793Z,97378.50
2022-10-25T14:29:13.597Z,97374.66
2022-10-25T14:31:20.724Z,97376.78
2022-10-25T14:33:26.925Z,97373.63
2022-10-25T14:35:33.763Z,97385.00
2022-10-25T14:37:42.291Z,97384.72
2022-10-25T14:39:52.977Z,97377.19
2022-10-25T14:41:58.457Z,97383.47
2022-10-25T14:44:02.107Z,97377.00
2022-10-25T14:46:13.480Z,97382.50
2022-10-25T14:48:16.167Z,97376.63
2022-10-25T14:50:22.849Z,97376.31
2022-10-25T14:52:26.554Z,97375.34
2022-10-25T14:54:33.617Z,97373.38
2022-10-25T14:56:39.567Z,97377.16
2022-10-25T14:58:44.832Z,97374.97
2022-10-25T15:00:58.652Z,97370.94
2022-10-25T15:03:04.754Z,97373.16
2022-10-25T15:05:08.464Z,97366.41
2022-10-25T15:07:22.011Z,97369.69
2022-10-25T15:12:09.603Z,97361.00
2022-10-25T15:14:22.621Z,97366.03
2022-10-25T15:16:29.948Z,97361.34
2022-10-25T15:18:35.904Z,97363.69
2022-10-25T15:20:38.473Z,97358.91
2022-10-25T15:22:44.366Z,97364.78
2022-10-25T15:24:48.939Z,97362.56
2022-10-25T15:26:53.200Z,97356.19
2022-10-25T15:28:58.077Z,97353.03
2022-10-25T15:31:07.238Z,97359.63
2022-10-25T15:33:13.963Z,97361.81
2022-10-25T15:35:26.417Z,97360.44
2022-10-25T15:37:30.533Z,97359.03
2022-10-25T15:39:33.432Z,97361.97
2022-10-25T15:41:36.487Z,97355.28
2022-10-25T15:43:39.081Z,97362.53
2022-10-25T15:45:41.963Z,97356.31
2022-10-25T15:47:47.510Z,97365.19
2022-10-25T15:49:53.071Z,97357.38
2022-10-25T15:51:56.012Z,97366.19
2022-10-25T15:53:58.564Z,97364.88
2022-10-25T15:56:01.148Z,97363.47
2022-10-25T15:58:07.040Z,97358.69
2022-10-25T16:00:15.053Z,97365.81
2022-10-25T16:02:23.119Z,97364.41
2022-10-25T16:04:27.294Z,97357.00
2022-10-25T16:06:30.065Z,97358.22
2022-10-25T16:08:32.664Z,97355.22
2022-10-25T16:10:35.357Z,97359.19
2022-10-25T16:12:38.776Z,97356.53
2022-10-25T16:14:41.414Z,97359.81
2022-10-25T16:16:44.160Z,97355.09
2022-10-25T16:18:46.942Z,97354.91
2022-10-25T16:20:51.876Z,97354.50
2022-10-25T16:22:55.579Z,97350.53
2022-10-25T16:24:58.157Z,97350.94
2022-10-25T16:27:01.233Z,97355.81
2022-10-25T16:29:03.913Z,97354.44
2022-10-25T16:31:06.640Z,97354.88
2022-10-25T16:33:09.256Z,97352.50
2022-10-25T16:35:14.480Z,97356.41
2022-10-25T16:37:18.757Z,97360.91
2022-10-25T16:39:21.487Z,97363.78
2022-10-25T16:41:26.183Z,97360.56
2022-10-25T16:43:28.758Z,97360.75
2022-10-25T16:45:34.023Z,97362.63
2022-10-25T16:47:36.865Z,97364.66
2022-10-25T16:49:39.400Z,97370.19
2022-10-25T16:51:44.116Z,97364.06
2022-10-25T16:53:49.361Z,97367.88
2022-10-25T16:55:51.965Z,97365.63
2022-10-25T16:57:54.518Z,97364.06
2022-10-25T16:59:57.407Z,97360.84
2022-10-25T17:02:00.241Z,97357.38
2022-10-25T17:04:03.814Z,97356.78
2022-10-25T17:06:22.161Z,97350.84
2022-10-25T17:08:29.423Z,97351.03
2022-10-25T17:10:33.331Z,97350.03
2022-10-25T17:12:42.526Z,97351.22
2022-10-25T17:14:45.096Z,97353.06
2022-10-25T17:16:47.678Z,97349.66
2022-10-25T17:18:50.230Z,97350.78
2022-10-25T17:20:52.818Z,97351.88
2022-10-25T17:22:55.479Z,97347.47
2022-10-25T17:24:58.029Z,97354.50
2022-10-25T17:27:02.063Z,97358.03
2022-10-25T17:29:05.001Z,97352.97
2022-10-25T17:31:12.430Z,97346.03
2022-10-25T17:33:14.990Z,97348.81
2022-10-25T17:35:19.500Z,97353.41
2022-10-25T17:37:22.169Z,97354.34
2022-10-25T17:39:24.724Z,97349.28
2022-10-25T17:41:27.409Z,97355.34
2022-10-25T17:43:31.373Z,97351.22
2022-10-25T17:45:34.006Z,97353.75
2022-10-25T17:47:37.622Z,97354.75
2022-10-25T17:49:40.552Z,97352.31
2022-10-25T17:51:43.859Z,97347.13
2022-10-25T17:53:52.615Z,97340.28
2022-10-25T17:55:55.164Z,97349.16
2022-10-25T17:57:57.750Z,97342.38
2022-10-25T18:00:02.982Z,97345.06
2022-10-25T18:02:05.655Z,97340.84
2022-10-25T18:04:08.286Z,97348.88
2022-10-25T18:06:13.103Z,97350.66
2022-10-25T18:08:15.732Z,97350.06
2022-10-25T18:10:21.060Z,97357.06
2022-10-25T18:12:23.637Z,97356.47
2022-10-25T18:14:26.227Z,97353.91
2022-10-25T18:16:31.478Z,97354.06
2022-10-25T18:18:34.167Z,97352.53
2022-10-25T18:20:40.253Z,97360.50
2022-10-25T18:22:42.826Z,97351.00
2022-10-25T18:24:47.523Z,97352.00
2022-10-25T18:26:50.103Z,97353.88
2022-10-25T18:28:53.212Z,97351.38
2022-10-25T18:30:59.992Z,97346.22
2022-10-25T18:33:08.993Z,97345.38
2022-10-25T18:35:11.560Z,97339.28
2022-10-25T18:37:14.163Z,97343.66
2022-10-25T18:39:16.843Z,97338.44
2022-10-25T18:41:24.620Z,97335.81
2022-10-25T18:43:27.804Z,97344.53
2022-10-25T18:45:30.526Z,97340.34
2022-10-25T18:47:33.111Z,97345.69
2022-10-25T18:49:37.052Z,97339.81
2022-10-25T18:51:40.574Z,97340.84
2022-10-25T18:53:43.339Z,97338.53
2022-10-25T18:55:46.061Z,97340.44
2022-10-25T18:57:48.905Z,97333.59
2022-10-25T18:59:51.828Z,97342.44
2022-10-25T19:01:54.676Z,97343.38
2022-10-25T19:03:57.575Z,97337.22
2022-10-25T19:06:01.521Z,97339.59
2022-10-25T19:08:04.108Z,97339.81
2022-10-25T19:10:07.639Z,97343.66
2022-10-25T19:12:10.296Z,97335.81
2022-10-25T19:14:13.186Z,97343.81
2022-10-25T19:16:16.676Z,97337.00
2022-10-25T19:18:19.229Z,97327.56
2022-10-25T19:20:21.798Z,97331.13
2022-10-25T19:22:25.750Z,97331.28
2022-10-25T19:24:28.734Z,97339.22
2022-10-25T19:26:31.433Z,97341.06
2022-10-25T19:28:35.000Z,97332.41
2022-10-25T19:30:38.046Z,97335.19
2022-10-25T19:32:41.593Z,97340.50
2022-10-25T19:34:44.173Z,97333.56
2022-10-25T19:36:46.956Z,97331.03
2022-10-25T19:38:50.915Z,97335.41
2022-10-25T19:40:53.463Z,97339.03
2022-10-25T19:42:56.126Z,97337.19
2022-10-25T19:47:02.427Z,97331.38
2022-10-25T19:49:05.007Z,97327.94
2022-10-25T19:51:09.695Z,97327.06
2022-10-25T19:53:12.408Z,97323.75
2022-10-25T19:55:17.071Z,97328.13
2022-10-25T19:57:19.679Z,97318.59
2022-10-25T19:59:22.449Z,97319.53
2022-10-25T20:01:27.157Z,97327.38
2022-10-25T20:03:30.008Z,97313.50
2022-10-25T20:05:32.633Z,97323.91
2022-10-25T20:07:35.866Z,97314.28
2022-10-25T20:09:38.610Z,97316.91
2022-10-25T20:11:42.593Z,97311.78
2022-10-25T20:13:45.615Z,97311.00
2022-10-25T20:15:51.233Z,97314.00
2022-10-25T20:17:53.847Z,97316.00
2022-10-25T20:19:56.535Z,97308.97
2022-10-25T20:21:59.861Z,97306.44
2022-10-25T20:24:04.144Z,97302.13
2022-10-25T20:26:14.708Z,97301.28
2022-10-25T20:28:18.727Z,97283.88
2022-10-25T20:30:21.786Z,97285.56
2022-10-25T20:32:24.508Z,97296.75
2022-10-25T20:34:27.203Z,97291.44
2022-10-25T20:36:29.900Z,97302.97
2022-10-25T20:38:32.590Z,97297.66
2022-10-25T20:40:35.515Z,97298.03
2022-10-25T20:42:38.123Z,97299.84
2022-10-25T20:44:42.142Z,97298.25
2022-10-25T20:46:44.744Z,97293.00
2022-10-25T20:48:47.323Z,97289.84
2022-10-25T20:50:50.518Z,97292.50
2022-10-25T20:53:11.261Z,97294.28
2022-10-25T20:55:13.886Z,97289.13
2022-10-25T20:57:16.520Z,97282.91
2022-10-25T20:59:19.077Z,97288.91
2022-10-25T21:01:23.107Z,97296.91
2022-10-25T21:03:27.116Z,97301.56
2022-10-25T21:05:29.742Z,97294.28
2022-10-25T21:07:33.092Z,97304.94
2022-10-25T21:09:35.684Z,97298.28
2022-10-25T21:11:38.340Z,97294.00
2022-10-25T21:13:41.203Z,97295.69
2022-10-25T21:15:46.518Z,97287.78
2022-10-25T21:17:51.051Z,97292.94
2022-10-25T21:19:53.896Z,97287.63
2022-10-25T21:21:56.552Z,97291.88
2022-10-25T21:24:00.461Z,97291.78
2022-10-25T21:26:04.773Z,97293.44
2022-10-25T21:28:07.799Z,97283.91
2022-10-25T21:30:11.131Z,97288.19
2022-10-25T21:32:13.678Z,97294.22
2022-10-25T21:36:21.526Z,97282.00
2022-10-25T21:38:24.194Z,97267.97
2022-10-25T21:40:26.974Z,97249.50
2022-10-25T21:42:31.568Z,97237.22
2022-10-25T21:44:34.334Z,97225.88
2022-10-25T21:46:36.905Z,97225.06
2022-10-25T21:48:39.787Z,97223.19
2022-10-25T21:50:43.738Z,97210.88
2022-10-25T21:52:46.291Z,97209.28
2022-10-25T21:54:48.945Z,97215.34
2022-10-25T21:56:52.614Z,97214.66
2022-10-25T21:58:55.152Z,97225.13
2022-10-25T22:00:57.827Z,97234.59
2022-10-25T22:03:00.389Z,97237.84
2022-10-25T22:05:02.946Z,97236.84
2022-10-25T22:07:06.877Z,97241.06
2022-10-25T22:09:09.531Z,97236.63
2022-10-25T22:11:15.576Z,97243.41
2022-10-25T22:13:18.267Z,97247.72
2022-10-25T22:15:20.876Z,97244.94
2022-10-25T22:17:23.658Z,97248.56
2022-10-25T22:19:27.267Z,97246.81
2022-10-25T22:21:31.827Z,97228.50
2022-10-25T22:23:36.183Z,97238.03
2022-10-25T22:25:38.791Z,97244.94
2022-10-25T22:27:41.410Z,97251.13
2022-10-25T22:29:43.989Z,97253.81
2022-10-25T22:31:46.608Z,97244.13
2022-10-25T22:33:56.469Z,97249.34
2022-10-25T22:38:10.446Z,97245.88
2022-10-25T22:40:14.531Z,97248.41
2022-10-25T22:42:17.103Z,97254.59
2022-10-25T22:44:19.652Z,97248.50
2022-10-25T22:46:25.151Z,97247.56
2022-10-25T22:48:31.460Z,97245.03
2022-10-25T22:50:34.000Z,97253.81
2022-10-25T22:52:36.655Z,97247.63
2022-10-25T22:54:39.276Z,97251.81
2022-10-25T22:56:43.176Z,97246.75
2022-10-25T22:58:49.858Z,97252.94
2022-10-25T23:00:52.669Z,97246.03
2022-10-25T23:02:55.354Z,97251.28
2022-10-25T23:04:57.952Z,97243.41
2022-10-25T23:07:00.517Z,97243.41
2022-10-25T23:09:05.577Z,97246.94
2022-10-25T23:11:11.170Z,97246.94
2022-10-25T23:13:15.082Z,97247.78
2022-10-25T23:15:17.693Z,97241.69
2022-10-25T23:17:20.272Z,97250.41
2022-10-25T23:19:22.852Z,97242.00
2022-10-25T23:21:27.233Z,97242.78
2022-10-25T23:23:33.885Z,97238.47
2022-10-25T23:25:36.503Z,97231.47
2022-10-25T23:27:39.159Z,97231.47
2022-10-25T23:29:43.104Z,97225.38
2022-10-25T23:31:45.646Z,97231.53
2022-10-25T23:33:51.866Z,97234.09
2022-10-25T23:35:54.462Z,97238.38
2022-10-25T23:37:57.229Z,97238.38
2022-10-25T23:39:59.858Z,97230.53
2022-10-25T23:42:02.407Z,97232.25
2022-10-25T23:44:05.477Z,97234.00
2022-10-25T23:46:10.271Z,97234.09
2022-10-25T23:48:12.848Z,97236.69
2022-10-25T23:50:15.540Z,97236.53
2022-10-25T23:52:18.099Z,97233.06
2022-10-25T23:54:20.645Z,97233.84
2022-10-25T23:56:23.213Z,97238.25
2022-10-25T23:58:26.121Z,97235.50
